Time;durP1;ratioP1;P1;durP2;ratioP2;P2;SDS_P1;SDS_P2;PMS_P1;PMS_P2;Temp;Humidity;BMP_temperature;BMP_pressure;BME280_temperature;BME280_humidity;BME280_pressure;Samples;Min_cycle;Max_cycle;Signal;HPM_P1;HPM_P2
2023/09/30 00:01:21;;;;;;;19.20;10.27;;;;;;;22.18;52.49;93914.44;6016769;23;20115;-92
2023/09/30 00:03:47;;;;;;;16.17;9.95;;;;;;;22.18;52.40;93912.44;6042326;23;20018;-92
2023/09/30 00:06:12;;;;;;;13.15;9.75;;;;;;;22.19;52.75;93908.41;6017123;23;20433;-91
2023/09/30 00:08:39;;;;;;;15.43;10.23;;;;;;;22.19;52.59;93907.66;6040996;23;20018;-92
2023/09/30 00:11:05;;;;;;;15.85;10.25;;;;;;;22.18;52.62;93912.44;6041711;23;20032;-93
2023/09/30 00:13:31;;;;;;;16.42;9.95;;;;;;;22.19;52.62;93904.91;6041835;23;20022;-93
2023/09/30 00:15:57;;;;;;;15.75;9.43;;;;;;;22.18;52.67;93897.91;6060731;23;20029;-92
2023/09/30 00:18:22;;;;;;;14.48;10.00;;;;;;;22.18;52.69;93909.69;6070776;23;20446;-93
2023/09/30 00:20:48;;;;;;;15.98;9.98;;;;;;;22.17;52.63;93919.19;6071550;23;20022;-94
2023/09/30 00:23:13;;;;;;;14.48;9.35;;;;;;;22.17;52.84;93921.22;6070699;23;20022;-93
2023/09/30 00:25:39;;;;;;;13.45;9.20;;;;;;;22.17;52.67;93921.97;6071885;23;20064;-93
2023/09/30 00:28:04;;;;;;;16.42;9.55;;;;;;;22.20;52.57;93925.69;6071197;23;20014;-92
2023/09/30 00:30:30;;;;;;;13.55;8.60;;;;;;;22.19;52.61;93924.94;6070074;23;20018;-93
2023/09/30 00:32:56;;;;;;;14.07;9.50;;;;;;;22.18;52.53;93923.44;6072764;23;20018;-93
2023/09/30 00:35:21;;;;;;;16.30;9.15;;;;;;;22.18;52.24;93931.72;6039800;23;20449;-92
2023/09/30 00:37:47;;;;;;;14.77;8.88;;;;;;;22.17;52.79;93937.72;6017854;23;20026;-93
2023/09/30 00:40:13;;;;;;;17.35;9.52;;;;;;;22.17;52.71;93927.47;6016658;23;20113;-94
2023/09/30 00:42:39;;;;;;;16.48;9.43;;;;;;;22.16;52.84;93939.00;6016751;23;20074;-92
2023/09/30 00:45:05;;;;;;;12.25;8.93;;;;;;;22.17;52.64;93941.22;6015938;23;20034;-92
2023/09/30 00:47:31;;;;;;;14.70;8.85;;;;;;;22.15;52.70;93943.75;6017110;23;20493;-93
2023/09/30 00:49:56;;;;;;;11.18;7.93;;;;;;;22.15;52.76;93945.78;6016390;23;20257;-93
2023/09/30 00:52:23;;;;;;;14.45;9.02;;;;;;;22.16;52.70;93933.50;6015997;23;20030;-93
2023/09/30 00:54:48;;;;;;;12.50;8.90;;;;;;;22.16;52.58;93939.00;6016681;23;20028;-92
2023/09/30 00:57:14;;;;;;;11.90;8.80;;;;;;;22.16;52.70;93939.00;6040842;23;20022;-91
2023/09/30 00:59:40;;;;;;;13.27;9.00;;;;;;;22.18;52.45;93944.72;6017319;23;20032;-92
2023/09/30 01:02:06;;;;;;;14.70;8.35;;;;;;;22.15;52.88;93954.78;6017173;23;20018;-92
2023/09/30 01:04:31;;;;;;;13.43;8.90;;;;;;;22.17;52.64;93951.50;6017646;23;20102;-93
2023/09/30 01:06:59;;;;;;;16.30;8.52;;;;;;;22.17;52.71;93951.50;6056004;23;20029;-92
2023/09/30 01:09:25;;;;;;;12.98;8.75;;;;;;;22.16;52.90;93952.75;6071363;23;20471;-93
2023/09/30 01:11:52;;;;;;;10.27;7.65;;;;;;;22.15;52.76;93954.78;6071924;23;20022;-93
2023/09/30 01:14:30;;;;;;;12.10;8.25;;;;;;;22.15;52.73;93963.03;6069892;23;20040;-92
2023/09/30 01:16:56;;;;;;;13.18;8.98;;;;;;;22.17;52.50;93966.00;6071471;23;20085;-94
2023/09/30 01:19:24;;;;;;;10.57;8.30;;;;;;;22.14;52.71;93960.81;6069927;23;20050;-92
2023/09/30 01:21:54;;;;;;;11.85;7.50;;;;;;;22.14;52.73;93964.31;6072454;23;20022;-93
2023/09/30 01:24:20;;;;;;;12.57;8.70;;;;;;;22.15;52.51;93968.53;6071902;23;20049;-91
2023/09/30 01:26:45;;;;;;;12.20;8.93;;;;;;;22.16;52.65;93969.28;6071679;23;20026;-93
2023/09/30 01:29:11;;;;;;;12.90;8.10;;;;;;;22.15;52.70;93960.28;6070137;23;20385;-93
2023/09/30 01:31:37;;;;;;;12.80;8.20;;;;;;;22.14;52.49;93958.78;6094371;23;20441;-94
2023/09/30 01:34:02;;;;;;;12.32;8.27;;;;;;;22.15;52.72;93957.53;6071247;23;20025;-92
2023/09/30 01:36:28;;;;;;;11.23;8.60;;;;;;;22.15;52.85;93960.28;6070753;23;20032;-93
2023/09/30 01:38:54;;;;;;;10.77;8.30;;;;;;;22.12;52.69;93964.06;6039914;23;20347;-92
2023/09/30 01:41:19;;;;;;;11.73;7.88;;;;;;;22.11;52.91;93962.59;6015516;23;20037;-93
2023/09/30 01:43:45;;;;;;;12.63;7.93;;;;;;;22.13;52.78;93959.31;6017189;23;20022;-94
2023/09/30 01:46:10;;;;;;;12.60;8.35;;;;;;;22.14;52.64;93958.78;6015874;23;20354;-91
2023/09/30 01:48:36;;;;;;;12.25;8.38;;;;;;;22.13;52.79;93973.09;6016601;23;20030;-91
2023/09/30 01:51:01;;;;;;;11.45;7.40;;;;;;;22.12;52.72;93963.34;6015985;23;20458;-92
2023/09/30 01:53:26;;;;;;;11.65;7.80;;;;;;;22.14;52.71;93963.56;6015087;23;20022;-92
2023/09/30 01:55:52;;;;;;;9.20;7.15;;;;;;;22.12;52.84;93958.56;6017088;23;20019;-93
2023/09/30 01:58:17;;;;;;;12.50;8.40;;;;;;;22.13;52.85;93970.31;6015801;23;20034;-92
2023/09/30 02:00:43;;;;;;;10.38;7.75;;;;;;;22.11;52.89;93957.09;6015362;23;20015;-93
2023/09/30 02:03:11;;;;;;;9.93;7.47;;;;;;;22.10;52.62;93969.38;6016635;23;20033;-93
2023/09/30 02:05:38;;;;;;;10.95;7.43;;;;;;;22.12;52.87;93966.84;6041052;23;20114;-94
2023/09/30 02:08:04;;;;;;;10.95;7.25;;;;;;;22.13;52.59;93979.34;6016501;23;20029;-92
2023/09/30 02:10:30;;;;;;;9.57;7.05;;;;;;;22.15;52.70;93974.06;6055774;23;20081;-93
2023/09/30 02:12:56;;;;;;;12.75;7.68;;;;;;;22.13;52.98;93981.34;6071792;23;20353;-92
2023/09/30 02:15:21;;;;;;;11.85;8.05;;;;;;;22.15;52.85;93992.59;6069932;23;20026;-93
2023/09/30 02:17:48;;;;;;;11.88;7.85;;;;;;;22.13;52.47;93990.34;6071738;23;20396;-93
2023/09/30 02:20:18;;;;;;;9.50;6.82;;;;;;;22.15;52.78;93995.34;6070181;23;20092;-91
2023/09/30 02:22:44;;;;;;;13.02;7.63;;;;;;;22.14;52.65;94000.09;6072681;23;20510;-92
2023/09/30 02:25:10;;;;;;;9.80;7.15;;;;;;;22.12;52.68;93997.13;6094005;23;20021;-93
2023/09/30 02:27:35;;;;;;;11.45;7.63;;;;;;;22.10;52.79;93999.66;6069916;23;20085;-93
2023/09/30 02:30:01;;;;;;;8.85;6.60;;;;;;;22.12;52.79;93999.13;6070423;23;20421;-92
2023/09/30 02:32:26;;;;;;;11.45;7.35;;;;;;;22.11;52.67;94003.91;6070092;23;20022;-93
2023/09/30 02:34:53;;;;;;;11.10;8.15;;;;;;;22.10;52.96;93996.16;6047366;23;20076;-92
2023/09/30 02:37:19;;;;;;;15.07;7.88;;;;;;;22.08;52.88;93993.94;6093442;23;20030;-92
2023/09/30 02:39:44;;;;;;;10.70;6.93;;;;;;;22.12;52.91;94002.63;6039166;23;20014;-91
2023/09/30 02:42:10;;;;;;;10.95;7.85;;;;;;;22.08;52.98;94006.97;6015332;23;20023;-92
2023/09/30 02:44:35;;;;;;;12.50;7.55;;;;;;;22.11;52.80;94016.91;6014847;23;20450;-92
2023/09/30 02:47:01;;;;;;;12.00;7.60;;;;;;;22.07;53.02;94014.47;6012191;23;20042;-93
2023/09/30 02:49:27;;;;;;;11.43;7.22;;;;;;;22.07;52.96;94019.25;5986606;23;20153;-92
2023/09/30 02:51:53;;;;;;;10.60;7.43;;;;;;;22.08;52.76;94017.97;5988094;23;20513;-92
2023/09/30 02:54:18;;;;;;;11.60;7.18;;;;;;;22.07;52.64;94017.22;5986342;23;20019;-91
2023/09/30 02:56:46;;;;;;;10.98;7.30;;;;;;;22.09;52.68;94025.69;5987803;23;20059;-93
2023/09/30 02:59:11;;;;;;;11.65;7.57;;;;;;;22.07;52.92;94022.75;5988318;23;20106;-91
2023/09/30 03:01:37;;;;;;;11.10;7.95;;;;;;;22.07;52.89;94019.25;5987968;23;20043;-92
2023/09/30 03:04:06;;;;;;;10.52;6.90;;;;;;;22.07;52.73;94020.00;5987475;23;20499;-94
2023/09/30 03:06:33;;;;;;;8.43;6.53;;;;;;;22.08;52.89;94026.25;5989029;23;20478;-94
2023/09/30 03:08:58;;;;;;;10.40;6.90;;;;;;;22.07;52.76;94024.75;5988850;23;20019;-93
2023/09/30 03:11:24;;;;;;;9.05;7.05;;;;;;;22.08;52.69;94031.75;5992494;23;20019;-94
2023/09/30 03:13:50;;;;;;;10.52;7.13;;;;;;;22.07;52.83;94022.75;6006647;23;20034;-92
2023/09/30 03:16:16;;;;;;;11.35;7.50;;;;;;;22.06;52.52;94031.53;6006404;23;20031;-93
2023/09/30 03:18:44;;;;;;;11.68;7.32;;;;;;;22.08;52.74;94029.75;6004988;23;20022;-93
2023/09/30 03:21:13;;;;;;;10.00;6.55;;;;;;;22.07;52.91;94031.00;6010439;23;20023;-94
2023/09/30 03:23:40;;;;;;;11.40;6.90;;;;;;;22.06;52.81;94035.03;6012103;23;20042;-94
2023/09/30 03:26:09;;;;;;;11.20;7.20;;;;;;;22.04;52.85;94032.03;6011595;23;20027;-94
2023/09/30 03:28:38;;;;;;;9.43;6.97;;;;;;;22.06;52.83;94037.78;6012017;23;20552;-93
2023/09/30 03:31:04;;;;;;;10.57;7.22;;;;;;;22.07;52.81;94046.78;5987635;23;20078;-94
2023/09/30 03:33:31;;;;;;;9.85;6.57;;;;;;;22.05;53.05;94046.56;6011812;23;20019;-92
2023/09/30 03:35:59;;;;;;;9.68;6.40;;;;;;;22.05;52.92;94049.31;6011043;23;20038;-93
2023/09/30 03:38:26;;;;;;;8.25;6.55;;;;;;;22.04;52.77;94056.06;6011850;23;20107;-91
2023/09/30 03:40:53;;;;;;;10.45;6.57;;;;;;;22.06;52.97;94048.03;6011498;23;20050;-93
2023/09/30 03:43:19;;;;;;;11.52;7.35;;;;;;;22.05;53.04;94046.56;6011291;23;20359;-93
2023/09/30 03:45:45;;;;;;;12.85;7.00;;;;;;;22.05;52.71;94050.06;6011285;23;20042;-92
2023/09/30 03:48:11;;;;;;;9.93;6.40;;;;;;;22.06;52.70;94056.31;6023023;23;20053;-92
2023/09/30 03:50:37;;;;;;;7.78;6.80;;;;;;;22.06;52.88;94051.53;6045961;23;20026;-92
2023/09/30 03:53:04;;;;;;;9.00;6.45;;;;;;;22.05;52.73;94043.78;6046927;23;20100;-92
2023/09/30 03:55:31;;;;;;;11.55;6.55;;;;;;;22.03;53.11;94046.31;6070152;23;20029;-92
2023/09/30 03:57:57;;;;;;;9.93;6.47;;;;;;;22.04;52.79;94040.31;6046597;23;20348;-93
2023/09/30 04:00:24;;;;;;;8.63;5.97;;;;;;;22.05;52.98;94035.53;6069470;23;20026;-92
2023/09/30 04:02:50;;;;;;;8.73;5.82;;;;;;;22.06;52.70;94040.53;6046329;23;20014;-92
2023/09/30 04:05:16;;;;;;;8.95;6.10;;;;;;;22.06;52.98;94051.53;6044674;23;20021;-93
2023/09/30 04:07:42;;;;;;;9.00;6.47;;;;;;;22.05;52.91;94057.56;6046675;23;20025;-93
2023/09/30 04:10:09;;;;;;;9.35;6.53;;;;;;;22.07;52.54;94064.03;6046195;23;20144;-93
2023/09/30 04:12:34;;;;;;;8.35;6.10;;;;;;;22.06;52.59;94059.81;6045757;23;20095;-92
2023/09/30 04:15:00;;;;;;;10.10;6.78;;;;;;;22.07;53.02;94066.06;6070212;23;20120;-93
2023/09/30 04:17:26;;;;;;;10.10;6.50;;;;;;;22.06;53.07;94075.56;6068709;23;20089;-92
2023/09/30 04:19:55;;;;;;;10.52;6.85;;;;;;;22.05;53.03;94074.09;6047056;23;20024;-92
2023/09/30 04:22:25;;;;;;;9.30;6.70;;;;;;;22.02;52.99;94073.09;6047462;23;20236;-94
2023/09/30 04:24:50;;;;;;;8.77;6.00;;;;;;;22.04;53.03;94072.59;6050945;23;20025;-93
2023/09/30 04:27:16;;;;;;;11.52;5.95;;;;;;;22.02;52.93;94073.09;6046375;23;20022;-92
2023/09/30 04:29:43;;;;;;;11.25;6.53;;;;;;;22.01;52.97;94074.38;6048393;23;20405;-91
2023/09/30 04:32:11;;;;;;;10.85;6.38;;;;;;;22.03;52.90;94071.09;6046760;23;20018;-94
2023/09/30 04:34:36;;;;;;;8.90;6.38;;;;;;;22.02;52.81;94072.38;6048644;23;20120;-92
2023/09/30 04:37:03;;;;;;;8.27;5.88;;;;;;;22.01;52.97;94068.88;6048360;23;20045;-92
2023/09/30 04:39:29;;;;;;;9.40;6.05;;;;;;;22.05;52.89;94077.59;6046845;23;20018;-91
2023/09/30 04:41:55;;;;;;;9.98;6.50;;;;;;;22.03;52.90;94082.84;6046372;23;20081;-93
2023/09/30 04:44:21;;;;;;;9.77;6.20;;;;;;;22.03;52.96;94093.13;6046405;23;20022;-92
2023/09/30 04:46:47;;;;;;;9.52;6.30;;;;;;;22.03;52.86;94079.34;6051785;23;20028;-93
2023/09/30 04:49:15;;;;;;;8.63;6.20;;;;;;;22.02;52.86;94086.88;6075148;23;20009;-93
2023/09/30 04:51:40;;;;;;;9.05;6.68;;;;;;;22.02;52.86;94097.16;6075386;23;20101;-92
2023/09/30 04:54:10;;;;;;;8.70;6.18;;;;;;;22.01;53.05;94098.41;6086973;23;20045;-92
2023/09/30 04:56:35;;;;;;;8.93;5.72;;;;;;;22.00;53.01;94096.88;6077249;23;20088;-92
2023/09/30 04:59:02;;;;;;;9.18;6.00;;;;;;;22.01;52.89;94103.91;6077153;23;20028;-93
2023/09/30 05:01:27;;;;;;;8.32;6.00;;;;;;;22.02;52.81;94106.16;6075365;23;20017;-92
2023/09/30 05:03:54;;;;;;;8.75;5.72;;;;;;;22.03;52.85;94104.88;6076657;23;20018;-92
2023/09/30 05:06:19;;;;;;;8.23;6.00;;;;;;;22.03;52.91;94112.41;6075249;23;20088;-92
2023/09/30 05:08:45;;;;;;;10.30;5.90;;;;;;;22.04;52.81;94122.16;6076719;23;20017;-92
2023/09/30 05:11:10;;;;;;;8.32;5.80;;;;;;;22.04;52.93;94119.41;6075517;23;20018;-93
2023/09/30 05:13:36;;;;;;;9.05;5.93;;;;;;;22.04;52.86;94119.41;6075076;23;20092;-93
2023/09/30 05:16:02;;;;;;;9.20;6.03;;;;;;;22.02;52.92;94124.69;6077034;23;20021;-92
2023/09/30 05:18:30;;;;;;;8.80;5.57;;;;;;;22.02;52.93;94114.41;6075055;23;20022;-92
2023/09/30 05:20:56;;;;;;;8.85;5.70;;;;;;;21.99;53.01;94118.16;6076194;23;20029;-92
2023/09/30 05:23:21;;;;;;;8.18;6.20;;;;;;;21.99;52.84;94101.66;6074470;23;20026;-93
2023/09/30 05:25:47;;;;;;;8.20;5.78;;;;;;;22.02;52.92;94099.91;6076630;23;20037;-93
2023/09/30 05:28:13;;;;;;;9.73;6.25;;;;;;;22.01;52.78;94099.16;6075568;23;20384;-91
2023/09/30 05:30:40;;;;;;;9.60;5.75;;;;;;;22.00;52.89;94107.91;6076102;23;20436;-92
2023/09/30 05:33:07;;;;;;;10.00;5.68;;;;;;;21.99;52.83;94109.91;6076077;23;20014;-93
2023/09/30 05:35:32;;;;;;;8.90;6.22;;;;;;;21.98;53.00;94110.41;6075666;23;21976;-93
2023/09/30 05:37:58;;;;;;;9.38;6.43;;;;;;;21.99;52.90;94120.16;6076455;23;20024;-94
2023/09/30 05:40:26;;;;;;;9.05;5.50;;;;;;;21.99;53.02;94128.44;6099311;23;20025;-92
2023/09/30 05:42:55;;;;;;;9.80;5.53;;;;;;;21.99;52.96;94131.19;6077288;23;20013;-92
2023/09/30 05:45:23;;;;;;;9.85;5.57;;;;;;;22.01;52.83;94136.94;6072528;23;20483;-92
2023/09/30 05:47:48;;;;;;;8.73;5.47;;;;;;;22.00;52.89;94138.97;6075191;23;20025;-93
2023/09/30 05:50:16;;;;;;;8.73;5.57;;;;;;;22.00;53.05;94143.69;6074633;23;20017;-92
2023/09/30 05:52:42;;;;;;;8.52;5.78;;;;;;;21.99;52.96;94148.44;6076141;23;20025;-93
2023/09/30 05:55:08;;;;;;;7.43;5.60;;;;;;;21.99;52.91;94150.47;6076107;23;20017;-92
2023/09/30 05:57:35;;;;;;;7.63;5.47;;;;;;;21.98;52.84;94155.22;6075697;23;20018;-92
2023/09/30 06:00:02;;;;;;;8.73;5.53;;;;;;;21.98;52.97;94149.72;6077510;23;20356;-94
2023/09/30 06:02:29;;;;;;;8.73;5.43;;;;;;;21.99;52.83;94166.97;6075333;23;20082;-92
2023/09/30 06:04:56;;;;;;;8.32;5.30;;;;;;;22.01;52.82;94162.47;6076180;23;20014;-92
2023/09/30 06:07:22;;;;;;;10.13;5.97;;;;;;;21.98;52.79;94168.97;6074708;23;20033;-93
2023/09/30 06:09:49;;;;;;;10.10;6.07;;;;;;;21.99;52.97;94164.97;6075911;23;20021;-92
2023/09/30 06:12:15;;;;;;;10.07;5.25;;;;;;;21.98;52.71;94180.00;6074437;23;20068;-93
2023/09/30 06:14:40;;;;;;;9.25;5.40;;;;;;;22.00;52.81;94173.97;6039774;23;20018;-94
2023/09/30 06:17:07;;;;;;;8.43;5.60;;;;;;;22.01;52.74;94170.72;6015662;23;20030;-91
2023/09/30 06:19:32;;;;;;;9.10;6.15;;;;;;;22.00;52.74;94169.25;6016038;23;20046;-93
2023/09/30 06:21:58;;;;;;;10.32;6.47;;;;;;;21.97;52.85;94161.22;6016694;23;20029;-94
2023/09/30 06:24:25;;;;;;;10.00;6.35;;;;;;;21.97;52.92;94163.97;6016056;23;20051;-93
2023/09/30 06:26:51;;;;;;;8.88;5.93;;;;;;;22.00;52.91;94160.97;6015911;23;20022;-92
2023/09/30 06:29:17;;;;;;;8.85;5.68;;;;;;;22.00;52.94;94151.94;6016060;23;20057;-93
2023/09/30 06:31:43;;;;;;;9.02;5.60;;;;;;;22.00;52.88;94155.47;6016839;23;20018;-93
2023/09/30 06:34:11;;;;;;;8.70;5.75;;;;;;;21.98;52.84;94143.47;6016215;23;20387;-94
2023/09/30 06:36:37;;;;;;;7.95;5.78;;;;;;;22.01;52.92;94139.69;6017029;23;20018;-93
2023/09/30 06:39:05;;;;;;;8.15;5.45;;;;;;;22.01;52.77;94128.69;6011601;23;20038;-93
2023/09/30 06:41:33;;;;;;;9.68;5.53;;;;;;;21.99;52.88;94126.41;5988251;23;20018;-91
2023/09/30 06:43:59;;;;;;;8.57;6.10;;;;;;;21.98;52.85;94135.94;6011333;23;20458;-94
2023/09/30 06:46:24;;;;;;;10.30;5.88;;;;;;;21.98;52.78;94140.69;6032791;23;20169;-92
2023/09/30 06:48:52;;;;;;;7.75;5.75;;;;;;;21.99;52.84;94145.69;6045092;23;20351;-93
2023/09/30 06:51:17;;;;;;;9.07;5.47;;;;;;;22.01;52.91;94159.72;6068519;23;20078;-92
2023/09/30 06:53:43;;;;;;;9.75;5.75;;;;;;;22.01;52.80;94169.97;6045384;23;20103;-92
2023/09/30 06:56:08;;;;;;;12.18;6.03;;;;;;;21.98;52.83;94173.75;6042968;23;20081;-93
2023/09/30 06:58:35;;;;;;;7.78;5.40;;;;;;;22.01;52.94;94175.50;6044571;23;20081;-93
2023/09/30 07:01:03;;;;;;;8.18;5.15;;;;;;;22.00;52.98;94177.50;6045055;23;20046;-92
2023/09/30 07:03:28;;;;;;;10.35;6.28;;;;;;;21.97;52.96;94169.50;6043307;23;20038;-92
2023/09/30 07:06:00;;;;;;;9.07;5.50;;;;;;;21.99;53.07;94173.22;6044654;23;20021;-93
2023/09/30 07:08:26;;;;;;;7.60;5.63;;;;;;;21.98;52.67;94166.22;6045890;23;20021;-93
2023/09/30 07:10:52;;;;;;;8.25;5.80;;;;;;;21.98;52.83;94159.97;6071219;23;20022;-93
2023/09/30 07:13:18;;;;;;;8.95;5.57;;;;;;;21.99;52.82;94162.22;6071645;23;20031;-94
2023/09/30 07:15:44;;;;;;;10.40;6.00;;;;;;;21.98;52.87;94182.00;6071536;23;20415;-93
2023/09/30 07:18:09;;;;;;;8.43;6.03;;;;;;;22.01;52.70;94186.50;6068715;23;20093;-93
2023/09/30 07:20:35;;;;;;;9.57;6.32;;;;;;;22.02;52.84;94186.00;6069664;23;20044;-92
2023/09/30 07:23:01;;;;;;;7.30;5.32;;;;;;;22.01;52.76;94187.25;6071630;23;20085;-92
2023/09/30 07:25:26;;;;;;;9.75;5.75;;;;;;;22.05;52.67;94195.22;6068469;23;20024;-93
2023/09/30 07:27:53;;;;;;;8.30;5.57;;;;;;;22.01;52.70;94192.75;6095260;23;20434;-93
2023/09/30 07:30:18;;;;;;;8.63;5.35;;;;;;;22.00;52.80;94196.78;6069613;23;20455;-92
2023/09/30 07:32:44;;;;;;;7.45;4.65;;;;;;;22.03;52.72;94208.75;6069805;23;20025;-92
2023/09/30 07:35:10;;;;;;;9.32;5.68;;;;;;;22.00;52.68;94209.75;6070466;23;20097;-93
2023/09/30 07:37:35;;;;;;;9.18;5.63;;;;;;;21.98;53.03;94207.53;6069857;23;20018;-94
2023/09/30 07:40:03;;;;;;;10.45;5.57;;;;;;;22.01;52.71;94203.03;6070430;23;20081;-93
2023/09/30 07:42:29;;;;;;;10.90;5.80;;;;;;;21.99;52.81;94206.25;6070328;23;20025;-92
2023/09/30 07:44:55;;;;;;;11.68;5.82;;;;;;;22.00;52.93;94207.78;6070805;23;20388;-92
2023/09/30 07:47:21;;;;;;;8.95;6.05;;;;;;;22.02;52.55;94208.03;6069082;23;20033;-92
2023/09/30 07:49:46;;;;;;;8.85;5.43;;;;;;;22.01;52.83;94209.28;6071254;23;20085;-92
2023/09/30 07:52:12;;;;;;;8.05;5.65;;;;;;;22.02;52.85;94199.00;6068869;23;20025;-92
2023/09/30 07:54:37;;;;;;;9.75;5.32;;;;;;;22.01;52.69;94208.53;6070579;23;20079;-92
2023/09/30 07:57:03;;;;;;;8.13;5.35;;;;;;;22.01;52.83;94208.53;6071309;23;20014;-93
2023/09/30 07:59:28;;;;;;;8.63;5.18;;;;;;;22.03;52.78;94206.00;6072090;23;20026;-93
2023/09/30 08:01:54;;;;;;;7.97;5.28;;;;;;;22.01;52.70;94203.78;6071971;23;20081;-94
2023/09/30 08:04:20;;;;;;;7.43;5.25;;;;;;;22.01;52.82;94203.78;6071148;23;20050;-92
2023/09/30 08:06:46;;;;;;;8.70;5.35;;;;;;;22.02;52.78;94213.53;6072964;23;20318;-92
2023/09/30 08:09:13;;;;;;;8.80;5.00;;;;;;;22.01;52.97;94220.28;6070631;23;20404;-93
2023/09/30 08:11:38;;;;;;;7.07;4.88;;;;;;;22.02;52.74;94213.53;6041087;23;20106;-93
2023/09/30 08:14:06;;;;;;;10.70;5.40;;;;;;;22.03;52.56;94223.28;6017197;23;20102;-93
2023/09/30 08:16:33;;;;;;;8.00;5.22;;;;;;;22.04;52.66;94218.53;6018151;23;20026;-92
2023/09/30 08:18:59;;;;;;;9.55;5.38;;;;;;;22.05;52.68;94226.25;6018030;23;20081;-92
2023/09/30 08:21:24;;;;;;;8.98;5.07;;;;;;;22.05;52.82;94217.25;6016449;23;20019;-93
2023/09/30 08:23:54;;;;;;;8.32;5.00;;;;;;;22.05;52.68;94228.28;6017939;23;20025;-92
2023/09/30 08:26:19;;;;;;;6.32;4.55;;;;;;;22.05;52.76;94226.25;6040589;23;20030;-92
2023/09/30 08:28:45;;;;;;;7.38;4.63;;;;;;;22.06;52.95;94219.50;6017648;23;20019;-92
2023/09/30 08:31:10;;;;;;;5.43;3.95;;;;;;;22.05;52.73;94225.53;6016967;23;20019;-92
2023/09/30 08:33:36;;;;;;;7.10;4.80;;;;;;;22.08;52.64;94233.50;6017033;23;20022;-92
2023/09/30 08:36:07;;;;;;;8.15;4.82;;;;;;;22.05;52.73;94225.53;6017882;23;20029;-93
2023/09/30 08:38:34;;;;;;;8.65;4.93;;;;;;;22.05;52.85;94231.78;6017632;23;20439;-92
2023/09/30 08:41:02;;;;;;;8.48;5.60;;;;;;;22.08;52.82;94224.50;6018368;23;20046;-95
2023/09/30 08:43:30;;;;;;;7.65;4.63;;;;;;;22.05;52.51;94215.25;6061479;23;20017;-92
2023/09/30 08:45:56;;;;;;;8.55;5.30;;;;;;;22.08;52.77;94233.50;6072387;23;20105;-94
2023/09/30 08:48:22;;;;;;;8.60;4.85;;;;;;;22.11;52.38;94226.19;6070951;23;20599;-93
2023/09/30 08:50:49;;;;;;;9.88;5.38;;;;;;;22.11;52.50;94226.19;6072681;23;20120;-93
2023/09/30 08:53:16;;;;;;;6.85;4.47;;;;;;;22.08;52.51;94233.50;6071158;23;20018;-92
2023/09/30 08:55:41;;;;;;;7.93;4.78;;;;;;;22.11;52.72;94234.44;6071856;23;20010;-93
2023/09/30 08:58:07;;;;;;;7.90;4.75;;;;;;;22.12;52.69;94236.69;6070159;23;20460;-91
2023/09/30 09:00:33;;;;;;;9.02;5.55;;;;;;;22.10;52.67;94230.94;6070626;23;20022;-93
2023/09/30 09:02:59;;;;;;;6.68;4.40;;;;;;;22.11;52.49;94246.22;6071774;23;20025;-93
2023/09/30 09:05:24;;;;;;;10.48;4.35;;;;;;;22.09;52.54;94234.22;6071185;23;20022;-92
2023/09/30 09:07:51;;;;;;;7.13;4.95;;;;;;;22.13;52.49;94242.94;6071801;23;20089;-93
2023/09/30 09:10:16;;;;;;;9.75;4.60;;;;;;;22.12;52.57;94244.22;6069769;23;20493;-93
2023/09/30 09:12:42;;;;;;;9.90;5.50;;;;;;;22.12;52.60;94233.19;6060930;23;20018;-93
2023/09/30 09:15:19;;;;;;;8.13;5.30;;;;;;;22.11;52.57;94224.19;6071211;23;20022;-92
2023/09/30 09:17:45;;;;;;;7.07;4.85;;;;;;;22.10;52.58;94224.69;6073605;23;20097;-94
2023/09/30 09:20:12;;;;;;;10.55;5.43;;;;;;;22.11;52.53;94223.44;6070417;23;20046;-92
2023/09/30 09:22:41;;;;;;;9.02;4.65;;;;;;;22.10;52.85;94244.72;6071967;23;20018;-94
2023/09/30 09:25:07;;;;;;;10.43;5.75;;;;;;;22.12;52.68;94249.72;6071404;23;20018;-92
2023/09/30 09:27:36;;;;;;;15.95;6.05;;;;;;;22.09;52.57;94245.22;6069995;23;20369;-93
2023/09/30 09:30:23;;;;;;;15.38;6.50;;;;;;;22.10;52.81;94239.22;6070877;23;20018;-92
2023/09/30 09:32:58;;;;;;;19.13;7.60;;;;;;;22.12;52.67;94238.69;6095668;23;20049;-93
2023/09/30 09:35:25;;;;;;;16.42;7.25;;;;;;;22.14;52.59;94247.19;6094157;23;20321;-93
2023/09/30 09:37:55;;;;;;;13.50;5.72;;;;;;;22.11;52.45;94245.47;6072148;23;20045;-92
2023/09/30 09:40:24;;;;;;;18.15;7.60;;;;;;;22.14;52.71;94244.44;6056507;23;20324;-91
2023/09/30 09:42:50;;;;;;;17.35;6.30;;;;;;;22.11;52.91;94248.97;6064680;23;20100;-93
2023/09/30 09:45:16;;;;;;;15.15;6.28;;;;;;;22.11;52.58;94248.22;6070420;23;20086;-92
2023/09/30 09:47:41;;;;;;;21.40;7.82;;;;;;;22.13;52.77;94237.44;6072044;23;20057;-93
2023/09/30 09:50:08;;;;;;;17.20;7.80;;;;;;;22.13;52.50;94240.94;6071240;23;20036;-92
2023/09/30 09:52:35;;;;;;;15.80;6.82;;;;;;;22.11;52.54;94243.47;6071192;23;20041;-93
2023/09/30 09:55:01;;;;;;;15.52;7.82;;;;;;;22.12;52.73;94236.69;6095979;23;20050;-93
2023/09/30 09:57:26;;;;;;;14.50;7.30;;;;;;;22.13;52.80;94237.44;6093465;23;20116;-91
2023/09/30 09:59:52;;;;;;;20.85;8.07;;;;;;;22.13;52.73;94240.19;6071408;23;20022;-93
2023/09/30 10:02:17;;;;;;;16.88;7.60;;;;;;;22.15;52.60;94232.91;6063095;23;20030;-93
2023/09/30 10:04:46;;;;;;;13.15;7.25;;;;;;;22.13;52.81;94245.69;6017214;23;20062;-92
2023/09/30 10:07:22;;;;;;;22.30;8.52;;;;;;;22.13;52.73;94232.69;6016689;23;20022;-94
2023/09/30 10:09:49;;;;;;;17.48;7.40;;;;;;;22.14;52.68;94242.44;6016469;23;20022;-91
2023/09/30 10:12:15;;;;;;;19.60;6.97;;;;;;;22.14;52.78;94245.19;6003315;23;20052;-92
2023/09/30 10:14:41;;;;;;;17.10;7.60;;;;;;;22.13;52.81;94240.19;6016925;23;20197;-93
2023/09/30 10:17:06;;;;;;;12.98;6.68;;;;;;;22.15;52.70;94240.44;6016378;23;20042;-92
2023/09/30 10:19:32;;;;;;;17.73;7.65;;;;;;;22.13;52.48;94243.69;6016580;23;20026;-93
2023/09/30 10:22:19;;;;;;;24.45;8.27;;;;;;;22.12;52.55;94253.22;6017131;23;20365;-93
2023/09/30 10:24:47;;;;;;;15.25;7.05;;;;;;;22.14;52.59;94244.44;6064382;23;20014;-93
2023/09/30 10:27:21;;;;;;;15.32;6.93;;;;;;;22.13;52.75;94253.97;6004379;23;20030;-92
2023/09/30 10:29:49;;;;;;;16.83;7.07;;;;;;;22.13;52.58;94251.94;6063012;23;20145;-92
2023/09/30 10:32:15;;;;;;;16.17;7.68;;;;;;;22.13;52.97;94240.94;6018988;23;20085;-91
2023/09/30 10:34:49;;;;;;;11.93;6.28;;;;;;;22.13;52.56;94227.16;6071302;23;20018;-93
2023/09/30 10:37:24;;;;;;;17.42;6.93;;;;;;;22.13;52.71;94224.41;6070202;23;20025;-92
2023/09/30 10:39:58;;;;;;;18.75;8.07;;;;;;;22.14;52.73;94222.41;6071860;23;20046;-92
2023/09/30 10:42:45;;;;;;;17.00;7.35;;;;;;;22.14;52.60;94216.91;6068898;23;20166;-94
2023/09/30 10:45:43;;;;;;;16.90;7.95;;;;;;;22.15;52.47;94221.91;6093284;23;20101;-93
2023/09/30 10:48:36;;;;;;;13.77;7.20;;;;;;;22.14;52.63;94206.63;6117828;23;20025;-92
2023/09/30 10:51:14;;;;;;;15.20;7.28;;;;;;;22.15;52.63;94201.88;6119117;23;20026;-93
2023/09/30 10:53:48;;;;;;;13.65;6.90;;;;;;;22.14;52.80;94200.38;6069918;23;20026;-94
2023/09/30 10:56:14;;;;;;;13.57;8.30;;;;;;;22.14;52.58;94203.88;6093485;23;20018;-91
2023/09/30 10:58:44;;;;;;;21.95;7.63;;;;;;;22.16;52.36;94203.38;6069991;23;20045;-93
2023/09/30 11:01:10;;;;;;;14.48;7.50;;;;;;;22.15;52.67;94199.13;6069153;23;20060;-91
2023/09/30 11:03:36;;;;;;;19.27;8.32;;;;;;;22.16;52.57;94203.38;6067788;23;20033;-94
2023/09/30 11:06:03;;;;;;;19.92;8.23;;;;;;;22.15;52.74;94205.38;6069976;23;20445;-93
2023/09/30 11:08:32;;;;;;;13.43;6.75;;;;;;;22.16;52.62;94206.88;6069667;23;20480;-93
2023/09/30 11:10:57;;;;;;;14.82;7.63;;;;;;;22.16;52.76;94197.84;6071235;23;20022;-91
2023/09/30 11:13:23;;;;;;;15.88;7.88;;;;;;;22.18;52.76;94198.84;6069770;23;20026;-94
2023/09/30 11:16:02;;;;;;;13.95;7.47;;;;;;;22.16;52.69;94195.84;6071215;23;20017;-92
2023/09/30 11:18:28;;;;;;;17.15;7.82;;;;;;;22.19;52.57;94200.31;6070050;23;20018;-93
2023/09/30 11:21:03;;;;;;;19.75;7.97;;;;;;;22.18;52.39;94201.59;6070906;23;20400;-95
2023/09/30 11:23:31;;;;;;;22.60;7.55;;;;;;;22.18;52.12;94198.09;6068621;23;20028;-92
2023/09/30 11:25:57;;;;;;;19.40;8.63;;;;;;;22.19;52.40;94199.59;6070424;23;20057;-93
2023/09/30 11:28:25;;;;;;;36.88;9.45;;;;;;;22.18;52.42;94187.81;6068643;23;20022;-93